sensor_id;sensor_type;location;lat;lon;timestamp;temperature;humidity
45207;DHT22;30950;53.086;21.576;2023-02-28T00:01:26;-3.30;99.90
45207;DHT22;30950;53.086;21.576;2023-02-28T00:03:54;-3.30;99.90
45207;DHT22;30950;53.086;21.576;2023-02-28T00:06:22;-3.30;99.90
45207;DHT22;30950;53.086;21.576;2023-02-28T00:08:50;-3.40;99.90
45207;DHT22;30950;53.086;21.576;2023-02-28T00:11:17;-3.30;99.90
45207;DHT22;30950;53.086;21.576;2023-02-28T00:13:46;-3.40;99.90
45207;DHT22;30950;53.086;21.576;2023-02-28T00:16:19;-3.40;99.90
45207;DHT22;30950;53.086;21.576;2023-02-28T00:18:48;-3.40;99.90
45207;DHT22;30950;53.086;21.576;2023-02-28T00:21:16;-3.40;99.90
45207;DHT22;30950;53.086;21.576;2023-02-28T00:23:45;-3.40;99.90
45207;DHT22;30950;53.086;21.576;2023-02-28T00:26:12;-3.40;99.90
45207;DHT22;30950;53.086;21.576;2023-02-28T00:28:44;-3.40;99.90
45207;DHT22;30950;53.086;21.576;2023-02-28T00:31:11;-3.50;99.90
45207;DHT22;30950;53.086;21.576;2023-02-28T00:33:39;-2.50;99.90
45207;DHT22;30950;53.086;21.576;2023-02-28T00:36:09;-3.50;99.90
45207;DHT22;30950;53.086;21.576;2023-02-28T00:38:37;-3.50;99.90
45207;DHT22;30950;53.086;21.576;2023-02-28T00:41:05;-3.60;99.90
45207;DHT22;30950;53.086;21.576;2023-02-28T00:43:38;-3.60;99.90
45207;DHT22;30950;53.086;21.576;2023-02-28T00:46:08;-3.60;99.90
45207;DHT22;30950;53.086;21.576;2023-02-28T00:48:36;-3.70;99.90
45207;DHT22;30950;53.086;21.576;2023-02-28T00:51:03;-3.60;99.90
45207;DHT22;30950;53.086;21.576;2023-02-28T00:53:31;-3.80;99.90
45207;DHT22;30950;53.086;21.576;2023-02-28T00:55:59;-3.80;99.90
45207;DHT22;30950;53.086;21.576;2023-02-28T00:58:27;-3.80;99.90
45207;DHT22;30950;53.086;21.576;2023-02-28T01:00:55;-3.90;99.90
45207;DHT22;30950;53.086;21.576;2023-02-28T01:03:23;-3.90;99.90
45207;DHT22;30950;53.086;21.576;2023-02-28T01:05:50;-3.90;99.90
45207;DHT22;30950;53.086;21.576;2023-02-28T01:08:18;-3.90;99.90
45207;DHT22;30950;53.086;21.576;2023-02-28T01:10:45;-4.00;99.90
45207;DHT22;30950;53.086;21.576;2023-02-28T01:13:13;-4.00;99.90
45207;DHT22;30950;53.086;21.576;2023-02-28T01:15:46;-3.60;99.90
45207;DHT22;30950;53.086;21.576;2023-02-28T01:18:16;-4.10;99.90
45207;DHT22;30950;53.086;21.576;2023-02-28T01:20:43;-4.10;99.90
45207;DHT22;30950;53.086;21.576;2023-02-28T01:23:11;-4.10;99.90
45207;DHT22;30950;53.086;21.576;2023-02-28T01:25:39;-4.10;99.90
45207;DHT22;30950;53.086;21.576;2023-02-28T01:28:07;-4.20;99.90
45207;DHT22;30950;53.086;21.576;2023-02-28T01:30:34;-4.20;99.90
45207;DHT22;30950;53.086;21.576;2023-02-28T01:33:02;-4.10;99.90
45207;DHT22;30950;53.086;21.576;2023-02-28T01:35:33;-4.20;99.90
45207;DHT22;30950;53.086;21.576;2023-02-28T01:38:02;-4.10;99.90
45207;DHT22;30950;53.086;21.576;2023-02-28T01:40:47;-4.20;99.90
45207;DHT22;30950;53.086;21.576;2023-02-28T01:46:12;-4.20;99.90
45207;DHT22;30950;53.086;21.576;2023-02-28T01:48:48;-4.20;99.90
45207;DHT22;30950;53.086;21.576;2023-02-28T01:51:47;-4.30;99.90
45207;DHT22;30950;53.086;21.576;2023-02-28T01:54:27;-4.20;99.90
45207;DHT22;30950;53.086;21.576;2023-02-28T01:56:59;-4.30;99.90
45207;DHT22;30950;53.086;21.576;2023-02-28T01:59:40;-4.30;99.90
45207;DHT22;30950;53.086;21.576;2023-02-28T02:02:14;-4.30;99.90
45207;DHT22;30950;53.086;21.576;2023-02-28T02:04:56;-4.40;99.90
45207;DHT22;30950;53.086;21.576;2023-02-28T02:07:26;-4.40;99.90
45207;DHT22;30950;53.086;21.576;2023-02-28T02:15:45;-4.40;99.90
45207;DHT22;30950;53.086;21.576;2023-02-28T02:18:19;-4.40;99.90
45207;DHT22;30950;53.086;21.576;2023-02-28T02:26:59;-4.30;99.90
45207;DHT22;30950;53.086;21.576;2023-02-28T02:34:48;-4.50;99.90
45207;DHT22;30950;53.086;21.576;2023-02-28T02:42:51;-4.40;99.90
45207;DHT22;30950;53.086;21.576;2023-02-28T02:45:44;-4.40;99.90
45207;DHT22;30950;53.086;21.576;2023-02-28T02:48:18;-4.40;99.90
45207;DHT22;30950;53.086;21.576;2023-02-28T02:50:55;-4.40;99.90
45207;DHT22;30950;53.086;21.576;2023-02-28T02:53:48;-4.40;99.90
45207;DHT22;30950;53.086;21.576;2023-02-28T02:56:23;-4.40;99.90
45207;DHT22;30950;53.086;21.576;2023-02-28T02:58:55;-4.40;99.90
45207;DHT22;30950;53.086;21.576;2023-02-28T03:01:24;-4.40;99.90
45207;DHT22;30950;53.086;21.576;2023-02-28T03:04:06;-4.40;99.90
45207;DHT22;30950;53.086;21.576;2023-02-28T03:06:34;-4.40;99.90
45207;DHT22;30950;53.086;21.576;2023-02-28T03:09:03;-4.40;99.90
45207;DHT22;30950;53.086;21.576;2023-02-28T03:11:31;-4.40;99.90
45207;DHT22;30950;53.086;21.576;2023-02-28T03:14:08;-4.40;99.90
45207;DHT22;30950;53.086;21.576;2023-02-28T03:16:55;-4.40;99.90
45207;DHT22;30950;53.086;21.576;2023-02-28T03:19:29;-4.40;99.90
45207;DHT22;30950;53.086;21.576;2023-02-28T03:25:16;-4.50;99.90
45207;DHT22;30950;53.086;21.576;2023-02-28T03:28:00;-4.60;99.90
45207;DHT22;30950;53.086;21.576;2023-02-28T03:33:18;-4.70;99.90
45207;DHT22;30950;53.086;21.576;2023-02-28T03:35:56;-4.70;99.90
45207;DHT22;30950;53.086;21.576;2023-02-28T03:38:49;-4.70;99.90
45207;DHT22;30950;53.086;21.576;2023-02-28T03:41:20;-4.70;99.90
45207;DHT22;30950;53.086;21.576;2023-02-28T03:43:58;-4.70;99.90
45207;DHT22;30950;53.086;21.576;2023-02-28T03:46:32;-4.70;99.90
45207;DHT22;30950;53.086;21.576;2023-02-28T03:49:15;-4.80;99.90
45207;DHT22;30950;53.086;21.576;2023-02-28T03:51:46;-4.80;99.90
45207;DHT22;30950;53.086;21.576;2023-02-28T03:54:18;-4.80;99.90
45207;DHT22;30950;53.086;21.576;2023-02-28T03:57:35;-4.80;99.90
45207;DHT22;30950;53.086;21.576;2023-02-28T03:59:39;-4.90;99.90
45207;DHT22;30950;53.086;21.576;2023-02-28T04:02:09;-4.90;99.90
45207;DHT22;30950;53.086;21.576;2023-02-28T04:04:36;-4.90;99.90
45207;DHT22;30950;53.086;21.576;2023-02-28T04:07:08;-4.90;99.90
45207;DHT22;30950;53.086;21.576;2023-02-28T04:09:35;-4.80;99.90
45207;DHT22;30950;53.086;21.576;2023-02-28T04:12:03;-4.90;99.90
45207;DHT22;30950;53.086;21.576;2023-02-28T04:14:30;-4.90;99.90
45207;DHT22;30950;53.086;21.576;2023-02-28T04:16:58;-4.90;99.90
45207;DHT22;30950;53.086;21.576;2023-02-28T04:19:25;-4.80;99.90
45207;DHT22;30950;53.086;21.576;2023-02-28T04:21:53;-4.90;99.90
45207;DHT22;30950;53.086;21.576;2023-02-28T04:24:26;-5.00;99.90
45207;DHT22;30950;53.086;21.576;2023-02-28T04:26:56;-4.90;99.90
45207;DHT22;30950;53.086;21.576;2023-02-28T04:29:30;-5.00;99.90
45207;DHT22;30950;53.086;21.576;2023-02-28T04:31:58;-5.00;99.90
45207;DHT22;30950;53.086;21.576;2023-02-28T04:34:27;-5.00;99.90
45207;DHT22;30950;53.086;21.576;2023-02-28T04:36:55;-5.00;99.90
45207;DHT22;30950;53.086;21.576;2023-02-28T04:39:39;-5.10;99.90
45207;DHT22;30950;53.086;21.576;2023-02-28T04:42:07;-5.10;99.90
45207;DHT22;30950;53.086;21.576;2023-02-28T04:44:34;-5.10;99.90
45207;DHT22;30950;53.086;21.576;2023-02-28T04:47:01;-5.00;99.90
45207;DHT22;30950;53.086;21.576;2023-02-28T04:49:29;-5.00;99.90
45207;DHT22;30950;53.086;21.576;2023-02-28T04:51:57;-5.10;99.90
45207;DHT22;30950;53.086;21.576;2023-02-28T04:54:24;-5.00;99.90
45207;DHT22;30950;53.086;21.576;2023-02-28T04:56:52;-4.60;99.90
45207;DHT22;30950;53.086;21.576;2023-02-28T04:59:19;-5.00;99.90
45207;DHT22;30950;53.086;21.576;2023-02-28T05:01:48;-5.00;99.90
45207;DHT22;30950;53.086;21.576;2023-02-28T05:04:16;-3.00;99.90
45207;DHT22;30950;53.086;21.576;2023-02-28T05:06:43;-4.90;99.90
45207;DHT22;30950;53.086;21.576;2023-02-28T05:09:11;-5.00;99.90
45207;DHT22;30950;53.086;21.576;2023-02-28T05:11:41;-4.40;99.90
45207;DHT22;30950;53.086;21.576;2023-02-28T05:14:13;-5.00;99.90
45207;DHT22;30950;53.086;21.576;2023-02-28T05:16:41;-5.00;99.90
45207;DHT22;30950;53.086;21.576;2023-02-28T05:19:09;-5.00;99.90
45207;DHT22;30950;53.086;21.576;2023-02-28T05:21:39;-5.00;99.90
45207;DHT22;30950;53.086;21.576;2023-02-28T05:24:11;-5.00;99.90
45207;DHT22;30950;53.086;21.576;2023-02-28T05:26:42;-5.00;99.90
45207;DHT22;30950;53.086;21.576;2023-02-28T05:29:10;-5.10;99.90
45207;DHT22;30950;53.086;21.576;2023-02-28T05:31:38;-5.10;99.90
45207;DHT22;30950;53.086;21.576;2023-02-28T05:34:05;-5.10;99.90
45207;DHT22;30950;53.086;21.576;2023-02-28T05:36:33;-5.10;99.90
45207;DHT22;30950;53.086;21.576;2023-02-28T05:39:00;-5.10;99.90
45207;DHT22;30950;53.086;21.576;2023-02-28T05:41:28;-5.10;99.90
45207;DHT22;30950;53.086;21.576;2023-02-28T05:43:57;-5.10;99.90
45207;DHT22;30950;53.086;21.576;2023-02-28T05:46:25;-5.10;99.90
45207;DHT22;30950;53.086;21.576;2023-02-28T05:48:52;-5.10;99.90
45207;DHT22;30950;53.086;21.576;2023-02-28T05:51:19;-5.10;99.90
45207;DHT22;30950;53.086;21.576;2023-02-28T05:53:47;-4.80;99.90
45207;DHT22;30950;53.086;21.576;2023-02-28T05:56:16;-5.00;99.90
45207;DHT22;30950;53.086;21.576;2023-02-28T05:58:43;-5.00;99.90
45207;DHT22;30950;53.086;21.576;2023-02-28T06:01:41;-4.90;99.90
45207;DHT22;30950;53.086;21.576;2023-02-28T06:04:10;-4.90;99.90
45207;DHT22;30950;53.086;21.576;2023-02-28T06:06:55;-4.80;99.90
45207;DHT22;30950;53.086;21.576;2023-02-28T06:09:24;-4.80;99.90
45207;DHT22;30950;53.086;21.576;2023-02-28T06:11:52;-4.80;99.90
45207;DHT22;30950;53.086;21.576;2023-02-28T06:14:20;-4.70;99.90
45207;DHT22;30950;53.086;21.576;2023-02-28T06:16:48;-4.70;99.90
45207;DHT22;30950;53.086;21.576;2023-02-28T06:19:15;-4.70;99.90
45207;DHT22;30950;53.086;21.576;2023-02-28T06:21:43;-4.60;99.90
45207;DHT22;30950;53.086;21.576;2023-02-28T06:24:11;-4.60;99.90
45207;DHT22;30950;53.086;21.576;2023-02-28T06:26:38;-4.60;99.90
45207;DHT22;30950;53.086;21.576;2023-02-28T06:29:06;-4.50;99.90
45207;DHT22;30950;53.086;21.576;2023-02-28T06:31:34;-4.40;99.90
45207;DHT22;30950;53.086;21.576;2023-02-28T06:34:01;-4.40;99.90
45207;DHT22;30950;53.086;21.576;2023-02-28T06:36:29;-4.30;99.90
45207;DHT22;30950;53.086;21.576;2023-02-28T06:38:57;-4.30;99.90
45207;DHT22;30950;53.086;21.576;2023-02-28T06:41:25;-4.20;99.90
45207;DHT22;30950;53.086;21.576;2023-02-28T06:43:54;-4.10;99.90
45207;DHT22;30950;53.086;21.576;2023-02-28T06:46:21;-4.10;99.90
45207;DHT22;30950;53.086;21.576;2023-02-28T06:48:49;-4.00;99.90
45207;DHT22;30950;53.086;21.576;2023-02-28T06:51:19;-3.90;99.90
45207;DHT22;30950;53.086;21.576;2023-02-28T06:53:51;-3.40;99.90
45207;DHT22;30950;53.086;21.576;2023-02-28T06:56:19;-3.80;99.90
45207;DHT22;30950;53.086;21.576;2023-02-28T06:58:48;-3.70;99.90
45207;DHT22;30950;53.086;21.576;2023-02-28T07:01:17;-3.60;99.90
45207;DHT22;30950;53.086;21.576;2023-02-28T07:03:45;-3.50;99.90
45207;DHT22;30950;53.086;21.576;2023-02-28T07:06:12;-3.40;99.90
45207;DHT22;30950;53.086;21.576;2023-02-28T07:08:40;-3.30;99.90
45207;DHT22;30950;53.086;21.576;2023-02-28T07:11:08;-3.20;99.90
45207;DHT22;30950;53.086;21.576;2023-02-28T07:13:36;-3.10;99.90
45207;DHT22;30950;53.086;21.576;2023-02-28T07:16:05;-3.00;99.90
45207;DHT22;30950;53.086;21.576;2023-02-28T07:18:33;-2.90;99.90
45207;DHT22;30950;53.086;21.576;2023-02-28T07:21:06;-2.80;99.90
45207;DHT22;30950;53.086;21.576;2023-02-28T07:23:34;-2.70;99.90
45207;DHT22;30950;53.086;21.576;2023-02-28T07:26:01;-1.60;99.90
45207;DHT22;30950;53.086;21.576;2023-02-28T07:28:28;-2.50;99.90
45207;DHT22;30950;53.086;21.576;2023-02-28T07:30:56;-2.40;99.90
45207;DHT22;30950;53.086;21.576;2023-02-28T07:33:23;-2.30;99.90
45207;DHT22;30950;53.086;21.576;2023-02-28T07:35:51;-2.10;99.90
45207;DHT22;30950;53.086;21.576;2023-02-28T07:38:18;-2.00;99.90
45207;DHT22;30950;53.086;21.576;2023-02-28T07:40:46;-1.90;99.90
45207;DHT22;30950;53.086;21.576;2023-02-28T07:43:13;-1.90;99.90
45207;DHT22;30950;53.086;21.576;2023-02-28T07:45:40;-1.80;99.90
45207;DHT22;30950;53.086;21.576;2023-02-28T07:48:07;-1.70;99.90
45207;DHT22;30950;53.086;21.576;2023-02-28T07:50:37;-1.00;99.90
45207;DHT22;30950;53.086;21.576;2023-02-28T07:53:04;-0.10;99.90
45207;DHT22;30950;53.086;21.576;2023-02-28T07:55:32;-0.20;99.90
45207;DHT22;30950;53.086;21.576;2023-02-28T07:57:59;-1.30;99.90
45207;DHT22;30950;53.086;21.576;2023-02-28T08:00:26;-0.40;99.90
45207;DHT22;30950;53.086;21.576;2023-02-28T08:02:55;-1.40;99.90
45207;DHT22;30950;53.086;21.576;2023-02-28T08:05:23;-1.30;99.90
45207;DHT22;30950;53.086;21.576;2023-02-28T08:07:50;-0.10;99.90
45207;DHT22;30950;53.086;21.576;2023-02-28T08:10:18;-1.10;99.90
45207;DHT22;30950;53.086;21.576;2023-02-28T08:12:45;-1.00;99.90
45207;DHT22;30950;53.086;21.576;2023-02-28T08:15:13;-0.90;99.90
45207;DHT22;30950;53.086;21.576;2023-02-28T08:17:40;-0.80;99.90
45207;DHT22;30950;53.086;21.576;2023-02-28T08:20:08;0.30;99.90
45207;DHT22;30950;53.086;21.576;2023-02-28T08:22:36;-0.60;99.90
45207;DHT22;30950;53.086;21.576;2023-02-28T08:25:04;-0.20;99.90
45207;DHT22;30950;53.086;21.576;2023-02-28T08:27:31;-0.50;99.90
45207;DHT22;30950;53.086;21.576;2023-02-28T08:29:58;-0.30;99.90
45207;DHT22;30950;53.086;21.576;2023-02-28T08:32:26;-0.30;99.90
45207;DHT22;30950;53.086;21.576;2023-02-28T08:34:56;0.20;99.90
45207;DHT22;30950;53.086;21.576;2023-02-28T08:37:24;-0.20;99.90
45207;DHT22;30950;53.086;21.576;2023-02-28T08:39:52;-0.10;99.90
45207;DHT22;30950;53.086;21.576;2023-02-28T08:42:23;-0.10;99.90
45207;DHT22;30950;53.086;21.576;2023-02-28T08:44:51;0.50;99.90
45207;DHT22;30950;53.086;21.576;2023-02-28T08:47:18;1.00;99.90
45207;DHT22;30950;53.086;21.576;2023-02-28T08:49:46;0.20;99.90
45207;DHT22;30950;53.086;21.576;2023-02-28T08:52:13;0.20;99.90
45207;DHT22;30950;53.086;21.576;2023-02-28T08:54:41;0.50;99.90
45207;DHT22;30950;53.086;21.576;2023-02-28T08:57:08;0.40;99.90
45207;DHT22;30950;53.086;21.576;2023-02-28T08:59:36;0.50;99.90
45207;DHT22;30950;53.086;21.576;2023-02-28T09:02:03;0.50;99.90
45207;DHT22;30950;53.086;21.576;2023-02-28T09:04:30;0.60;99.90
45207;DHT22;30950;53.086;21.576;2023-02-28T09:06:58;0.70;99.90
45207;DHT22;30950;53.086;21.576;2023-02-28T09:09:25;0.70;99.90
45207;DHT22;30950;53.086;21.576;2023-02-28T09:11:55;0.80;99.90
45207;DHT22;30950;53.086;21.576;2023-02-28T09:14:23;0.80;99.90
45207;DHT22;30950;53.086;21.576;2023-02-28T09:16:50;0.90;99.90
45207;DHT22;30950;53.086;21.576;2023-02-28T09:19:17;1.00;99.90
45207;DHT22;30950;53.086;21.576;2023-02-28T09:21:45;1.30;99.90
45207;DHT22;30950;53.086;21.576;2023-02-28T09:24:12;1.10;99.90
45207;DHT22;30950;53.086;21.576;2023-02-28T09:26:42;1.20;99.90
45207;DHT22;30950;53.086;21.576;2023-02-28T09:29:30;1.30;99.90
45207;DHT22;30950;53.086;21.576;2023-02-28T09:31:57;1.20;99.90
45207;DHT22;30950;53.086;21.576;2023-02-28T09:34:26;1.30;99.90
45207;DHT22;30950;53.086;21.576;2023-02-28T09:36:54;1.30;99.90
45207;DHT22;30950;53.086;21.576;2023-02-28T09:39:22;1.40;99.90
45207;DHT22;30950;53.086;21.576;2023-02-28T09:41:52;1.40;99.90
45207;DHT22;30950;53.086;21.576;2023-02-28T09:44:36;1.50;99.90
45207;DHT22;30950;53.086;21.576;2023-02-28T09:49:58;1.50;99.90
45207;DHT22;30950;53.086;21.576;2023-02-28T09:52:31;1.50;99.90
45207;DHT22;30950;53.086;21.576;2023-02-28T09:55:26;1.60;99.90
45207;DHT22;30950;53.086;21.576;2023-02-28T09:57:50;1.70;99.90
45207;DHT22;30950;53.086;21.576;2023-02-28T10:00:22;1.70;99.90
45207;DHT22;30950;53.086;21.576;2023-02-28T10:02:54;1.80;99.90
45207;DHT22;30950;53.086;21.576;2023-02-28T10:05:30;1.90;99.90
45207;DHT22;30950;53.086;21.576;2023-02-28T10:08:08;2.00;99.90
45207;DHT22;30950;53.086;21.576;2023-02-28T10:10:46;2.10;99.90
45207;DHT22;30950;53.086;21.576;2023-02-28T10:19:11;2.30;99.90
45207;DHT22;30950;53.086;21.576;2023-02-28T10:21:47;2.40;99.90
45207;DHT22;30950;53.086;21.576;2023-02-28T10:24:26;2.50;99.90
45207;DHT22;30950;53.086;21.576;2023-02-28T10:27:00;2.60;99.90
45207;DHT22;30950;53.086;21.576;2023-02-28T10:29:31;2.70;99.90
45207;DHT22;30950;53.086;21.576;2023-02-28T10:32:01;2.70;99.90
45207;DHT22;30950;53.086;21.576;2023-02-28T10:34:30;2.80;99.90
45207;DHT22;30950;53.086;21.576;2023-02-28T10:36:58;2.90;99.90
45207;DHT22;30950;53.086;21.576;2023-02-28T10:39:45;2.90;95.20
45207;DHT22;30950;53.086;21.576;2023-02-28T10:42:25;2.90;95.00
45207;DHT22;30950;53.086;21.576;2023-02-28T10:47:54;3.10;96.30
45207;DHT22;30950;53.086;21.576;2023-02-28T10:56:05;4.10;94.30
45207;DHT22;30950;53.086;21.576;2023-02-28T11:01:41;4.70;89.40
45207;DHT22;30950;53.086;21.576;2023-02-28T11:07:03;4.60;86.60
45207;DHT22;30950;53.086;21.576;2023-02-28T11:09:37;4.40;86.00
45207;DHT22;30950;53.086;21.576;2023-02-28T11:12:10;4.40;85.50
45207;DHT22;30950;53.086;21.576;2023-02-28T11:14:56;4.20;85.40
45207;DHT22;30950;53.086;21.576;2023-02-28T11:17:27;4.10;86.10
45207;DHT22;30950;53.086;21.576;2023-02-28T11:20:04;4.00;85.80
45207;DHT22;30950;53.086;21.576;2023-02-28T11:22:37;3.80;84.30
45207;DHT22;30950;53.086;21.576;2023-02-28T11:25:25;3.90;86.60
45207;DHT22;30950;53.086;21.576;2023-02-28T11:27:58;3.80;84.80
45207;DHT22;30950;53.086;21.576;2023-02-28T11:32:58;3.80;84.60
45207;DHT22;30950;53.086;21.576;2023-02-28T11:35:38;3.80;87.30
45207;DHT22;30950;53.086;21.576;2023-02-28T11:38:12;3.80;81.00
45207;DHT22;30950;53.086;21.576;2023-02-28T11:44:02;4.00;80.90
45207;DHT22;30950;53.086;21.576;2023-02-28T11:52:20;4.70;82.90
45207;DHT22;30950;53.086;21.576;2023-02-28T12:03:53;5.20;76.60
45207;DHT22;30950;53.086;21.576;2023-02-28T12:09:39;5.10;75.50
45207;DHT22;30950;53.086;21.576;2023-02-28T12:14:53;5.50;77.10
45207;DHT22;30950;53.086;21.576;2023-02-28T12:26:19;5.30;72.10
45207;DHT22;30950;53.086;21.576;2023-02-28T12:28:51;5.10;73.90
45207;DHT22;30950;53.086;21.576;2023-02-28T12:31:24;5.00;73.60
45207;DHT22;30950;53.086;21.576;2023-02-28T12:33:55;4.90;74.60
45207;DHT22;30950;53.086;21.576;2023-02-28T12:36:23;4.90;76.00
45207;DHT22;30950;53.086;21.576;2023-02-28T12:39:03;5.00;78.10
45207;DHT22;30950;53.086;21.576;2023-02-28T12:41:59;5.00;76.10
45207;DHT22;30950;53.086;21.576;2023-02-28T12:44:42;5.10;74.40
45207;DHT22;30950;53.086;21.576;2023-02-28T12:47:17;5.00;75.50
45207;DHT22;30950;53.086;21.576;2023-02-28T12:49:59;5.10;77.30
45207;DHT22;30950;53.086;21.576;2023-02-28T12:52:58;5.10;74.40
45207;DHT22;30950;53.086;21.576;2023-02-28T12:55:48;5.10;74.90
45207;DHT22;30950;53.086;21.576;2023-02-28T13:09:16;5.40;78.00
45207;DHT22;30950;53.086;21.576;2023-02-28T13:11:49;5.40;77.10
45207;DHT22;30950;53.086;21.576;2023-02-28T13:19:32;5.50;74.90
45207;DHT22;30950;53.086;21.576;2023-02-28T13:22:01;5.50;75.50
45207;DHT22;30950;53.086;21.576;2023-02-28T13:24:42;5.50;76.70
45207;DHT22;30950;53.086;21.576;2023-02-28T13:27:11;5.60;75.80
45207;DHT22;30950;53.086;21.576;2023-02-28T13:29:40;5.60;75.60
45207;DHT22;30950;53.086;21.576;2023-02-28T13:34:38;5.60;74.50
45207;DHT22;30950;53.086;21.576;2023-02-28T13:56:03;6.10;75.20
45207;DHT22;30950;53.086;21.576;2023-02-28T13:59:12;6.20;74.60
45207;DHT22;30950;53.086;21.576;2023-02-28T14:05:06;7.00;76.70
45207;DHT22;30950;53.086;21.576;2023-02-28T14:07:46;7.50;75.60
45207;DHT22;30950;53.086;21.576;2023-02-28T14:10:47;8.10;71.40
45207;DHT22;30950;53.086;21.576;2023-02-28T14:13:41;8.60;71.10
45207;DHT22;30950;53.086;21.576;2023-02-28T14:16:24;9.20;70.60
45207;DHT22;30950;53.086;21.576;2023-02-28T14:19:00;9.60;66.90
45207;DHT22;30950;53.086;21.576;2023-02-28T14:21:36;9.70;64.90
45207;DHT22;30950;53.086;21.576;2023-02-28T14:29:33;9.40;59.20
45207;DHT22;30950;53.086;21.576;2023-02-28T14:32:28;9.20;60.40
45207;DHT22;30950;53.086;21.576;2023-02-28T14:38:12;8.50;58.70
45207;DHT22;30950;53.086;21.576;2023-02-28T14:40:41;8.10;59.30
45207;DHT22;30950;53.086;21.576;2023-02-28T14:43:26;7.60;60.90
45207;DHT22;30950;53.086;21.576;2023-02-28T14:46:04;7.20;61.00
45207;DHT22;30950;53.086;21.576;2023-02-28T14:48:33;6.70;62.90
45207;DHT22;30950;53.086;21.576;2023-02-28T14:51:02;6.50;63.60
45207;DHT22;30950;53.086;21.576;2023-02-28T14:53:35;6.30;63.30
45207;DHT22;30950;53.086;21.576;2023-02-28T14:56:03;6.00;63.20
45207;DHT22;30950;53.086;21.576;2023-02-28T14:58:33;5.80;64.20
45207;DHT22;30950;53.086;21.576;2023-02-28T15:01:02;5.60;64.50
45207;DHT22;30950;53.086;21.576;2023-02-28T15:03:32;5.50;64.90
45207;DHT22;30950;53.086;21.576;2023-02-28T15:06:04;5.40;65.40
45207;DHT22;30950;53.086;21.576;2023-02-28T15:08:33;5.40;65.60
45207;DHT22;30950;53.086;21.576;2023-02-28T15:11:17;5.20;65.70
45207;DHT22;30950;53.086;21.576;2023-02-28T15:13:48;5.10;65.70
45207;DHT22;30950;53.086;21.576;2023-02-28T15:16:34;4.90;66.20
45207;DHT22;30950;53.086;21.576;2023-02-28T15:19:11;4.80;67.10
45207;DHT22;30950;53.086;21.576;2023-02-28T15:21:43;4.80;67.50
45207;DHT22;30950;53.086;21.576;2023-02-28T15:24:40;4.70;67.30
45207;DHT22;30950;53.086;21.576;2023-02-28T15:27:20;4.60;67.90
45207;DHT22;30950;53.086;21.576;2023-02-28T15:29:50;4.40;68.40
45207;DHT22;30950;53.086;21.576;2023-02-28T15:32:30;4.40;68.70
45207;DHT22;30950;53.086;21.576;2023-02-28T15:35:17;4.30;69.40
45207;DHT22;30950;53.086;21.576;2023-02-28T15:37:47;4.20;69.20
45207;DHT22;30950;53.086;21.576;2023-02-28T15:40:35;4.10;69.60
45207;DHT22;30950;53.086;21.576;2023-02-28T15:45:58;4.00;70.40
45207;DHT22;30950;53.086;21.576;2023-02-28T15:51:43;3.80;71.50
45207;DHT22;30950;53.086;21.576;2023-02-28T15:54:06;3.80;72.10
45207;DHT22;30950;53.086;21.576;2023-02-28T15:56:53;3.70;72.70
45207;DHT22;30950;53.086;21.576;2023-02-28T15:59:28;3.60;73.20
45207;DHT22;30950;53.086;21.576;2023-02-28T16:07:36;3.40;74.70
45207;DHT22;30950;53.086;21.576;2023-02-28T16:10:05;3.30;75.20
45207;DHT22;30950;53.086;21.576;2023-02-28T16:12:36;3.20;75.80
45207;DHT22;30950;53.086;21.576;2023-02-28T16:15:25;3.20;76.40
45207;DHT22;30950;53.086;21.576;2023-02-28T16:17:56;3.10;77.10
45207;DHT22;30950;53.086;21.576;2023-02-28T16:20:28;3.00;77.50
45207;DHT22;30950;53.086;21.576;2023-02-28T16:22:56;2.90;78.40
45207;DHT22;30950;53.086;21.576;2023-02-28T16:25:39;3.00;79.10
45207;DHT22;30950;53.086;21.576;2023-02-28T16:28:20;2.80;80.10
45207;DHT22;30950;53.086;21.576;2023-02-28T16:30:51;2.70;80.60
45207;DHT22;30950;53.086;21.576;2023-02-28T16:33:19;2.60;81.10
45207;DHT22;30950;53.086;21.576;2023-02-28T16:35:46;2.60;81.60
45207;DHT22;30950;53.086;21.576;2023-02-28T16:38:14;2.50;82.20
45207;DHT22;30950;53.086;21.576;2023-02-28T16:40:41;2.50;83.00
45207;DHT22;30950;53.086;21.576;2023-02-28T16:43:15;2.40;83.80
45207;DHT22;30950;53.086;21.576;2023-02-28T16:45:44;2.30;84.90
45207;DHT22;30950;53.086;21.576;2023-02-28T16:48:14;2.30;85.60
45207;DHT22;30950;53.086;21.576;2023-02-28T16:50:42;2.20;86.60
45207;DHT22;30950;53.086;21.576;2023-02-28T16:53:12;2.20;88.10
45207;DHT22;30950;53.086;21.576;2023-02-28T16:55:40;2.10;89.00
45207;DHT22;30950;53.086;21.576;2023-02-28T16:58:14;2.10;89.90
45207;DHT22;30950;53.086;21.576;2023-02-28T17:00:42;2.00;90.30
45207;DHT22;30950;53.086;21.576;2023-02-28T17:03:23;2.00;91.00
45207;DHT22;30950;53.086;21.576;2023-02-28T17:05:59;1.90;92.30
45207;DHT22;30950;53.086;21.576;2023-02-28T17:08:27;1.90;92.80
45207;DHT22;30950;53.086;21.576;2023-02-28T17:10:56;1.80;93.00
45207;DHT22;30950;53.086;21.576;2023-02-28T17:13:23;1.80;93.50
45207;DHT22;30950;53.086;21.576;2023-02-28T17:15:51;1.70;94.20
45207;DHT22;30950;53.086;21.576;2023-02-28T17:18:19;1.70;94.70
45207;DHT22;30950;53.086;21.576;2023-02-28T17:20:48;1.70;94.80
45207;DHT22;30950;53.086;21.576;2023-02-28T17:23:16;1.60;95.70
45207;DHT22;30950;53.086;21.576;2023-02-28T17:25:44;1.50;95.50
45207;DHT22;30950;53.086;21.576;2023-02-28T17:28:23;1.50;95.90
45207;DHT22;30950;53.086;21.576;2023-02-28T17:30:51;1.50;96.50
45207;DHT22;30950;53.086;21.576;2023-02-28T17:33:18;1.40;96.50
45207;DHT22;30950;53.086;21.576;2023-02-28T17:35:45;1.40;97.10
45207;DHT22;30950;53.086;21.576;2023-02-28T17:38:16;1.40;97.70
45207;DHT22;30950;53.086;21.576;2023-02-28T17:40:44;1.30;98.30
45207;DHT22;30950;53.086;21.576;2023-02-28T17:43:12;1.40;98.50
45207;DHT22;30950;53.086;21.576;2023-02-28T17:45:40;1.30;98.40
45207;DHT22;30950;53.086;21.576;2023-02-28T17:48:11;1.30;98.70
45207;DHT22;30950;53.086;21.576;2023-02-28T17:50:38;1.30;98.80
45207;DHT22;30950;53.086;21.576;2023-02-28T17:53:06;1.30;98.70
45207;DHT22;30950;53.086;21.576;2023-02-28T17:55:33;1.30;99.00
45207;DHT22;30950;53.086;21.576;2023-02-28T17:58:02;1.20;99.90
45207;DHT22;30950;53.086;21.576;2023-02-28T18:00:30;1.20;99.90
45207;DHT22;30950;53.086;21.576;2023-02-28T18:03:00;1.10;99.90
45207;DHT22;30950;53.086;21.576;2023-02-28T18:05:28;1.00;99.90
45207;DHT22;30950;53.086;21.576;2023-02-28T18:07:56;1.00;99.90
45207;DHT22;30950;53.086;21.576;2023-02-28T18:10:23;1.00;99.90
45207;DHT22;30950;53.086;21.576;2023-02-28T18:12:51;1.70;99.90
45207;DHT22;30950;53.086;21.576;2023-02-28T18:15:20;1.00;99.90
45207;DHT22;30950;53.086;21.576;2023-02-28T18:17:49;0.90;99.90
45207;DHT22;30950;53.086;21.576;2023-02-28T18:20:17;0.90;99.90
45207;DHT22;30950;53.086;21.576;2023-02-28T18:22:44;0.90;99.90